createdAt,value
2022-09-17T00:02:20.073Z,1.80
2022-09-17T00:05:07.779Z,1.73
2022-09-17T00:07:54.829Z,1.55
2022-09-17T00:10:44.464Z,1.65
2022-09-17T00:13:31.517Z,1.75
2022-09-17T00:16:24.816Z,1.80
2022-09-17T00:19:23.050Z,1.80
2022-09-17T00:22:13.276Z,1.88
2022-09-17T00:25:00.294Z,2.00
2022-09-17T00:27:49.460Z,2.22
2022-09-17T00:30:40.776Z,2.20
2022-09-17T00:33:27.844Z,2.40
2022-09-17T00:36:15.190Z,1.85
2022-09-17T00:39:03.524Z,1.95
2022-09-17T00:41:53.107Z,1.77
2022-09-17T00:44:53.413Z,1.98
2022-09-17T00:47:58.838Z,2.10
2022-09-17T00:50:45.905Z,2.30
2022-09-17T00:53:33.308Z,1.90
2022-09-17T00:56:26.003Z,2.00
2022-09-17T00:59:14.879Z,2.35
2022-09-17T01:02:05.646Z,1.70
2022-09-17T01:04:52.751Z,1.50
2022-09-17T01:07:58.327Z,1.90
2022-09-17T01:11:23.597Z,1.67
2022-09-17T01:14:25.411Z,1.75
2022-09-17T01:17:29.534Z,2.13
2022-09-17T01:20:19.345Z,2.15
2022-09-17T01:23:38.868Z,2.00
2022-09-17T01:26:47.383Z,1.98
2022-09-17T01:30:02.752Z,1.75
2022-09-17T01:32:59.014Z,2.15
2022-09-17T01:35:55.435Z,2.35
2022-09-17T01:39:12.682Z,2.30
2022-09-17T01:42:56.501Z,2.80
2022-09-17T01:48:46.306Z,2.60
2022-09-17T01:51:43.013Z,2.30
2022-09-17T01:54:51.255Z,3.03
2022-09-17T01:57:49.376Z,2.35
2022-09-17T02:00:42.470Z,3.17
2022-09-17T02:03:49.126Z,2.80
2022-09-17T02:06:43.039Z,3.10
2022-09-17T02:09:43.899Z,3.50
2022-09-17T02:12:35.898Z,3.40
2022-09-17T02:15:28.250Z,3.05
2022-09-17T02:18:34.355Z,3.13
2022-09-17T02:21:28.803Z,2.50
2022-09-17T02:24:21.659Z,2.10
2022-09-17T02:30:02.869Z,2.47
2022-09-17T02:32:53.452Z,2.20
2022-09-17T02:35:40.668Z,2.40
2022-09-17T02:38:32.598Z,2.72
2022-09-17T02:41:26.320Z,2.60
2022-09-17T02:44:40.933Z,1.73
2022-09-17T02:47:43.029Z,1.92
2022-09-17T02:51:01.160Z,1.93
2022-09-17T02:54:12.105Z,2.55
2022-09-17T02:57:10.266Z,2.65
2022-09-17T03:00:06.437Z,2.17
2022-09-17T03:03:14.855Z,2.22
2022-09-17T03:06:02.806Z,2.60
2022-09-17T03:08:51.913Z,2.55
2022-09-17T03:11:41.147Z,2.35
2022-09-17T03:14:28.288Z,2.15
2022-09-17T03:17:15.455Z,2.35
2022-09-17T03:20:02.733Z,2.50
2022-09-17T03:22:51.743Z,2.30
2022-09-17T03:25:38.738Z,2.35
2022-09-17T03:28:26.582Z,2.35
2022-09-17T03:31:13.706Z,3.15
2022-09-17T03:34:00.783Z,3.60
2022-09-17T03:36:50.592Z,2.92
2022-09-17T03:39:40.092Z,2.90
2022-09-17T03:42:27.145Z,3.10
2022-09-17T03:45:16.382Z,2.65
2022-09-17T03:48:03.564Z,2.92
2022-09-17T03:50:50.956Z,2.80
2022-09-17T03:53:38.381Z,2.92
2022-09-17T03:56:26.787Z,4.50
2022-09-17T03:59:13.938Z,2.50
2022-09-17T04:02:03.569Z,2.88
2022-09-17T04:04:54.002Z,2.80
2022-09-17T04:07:43.733Z,2.38
2022-09-17T04:10:30.808Z,3.25
2022-09-17T04:13:18.814Z,2.70
2022-09-17T04:16:06.240Z,2.95
2022-09-17T04:18:55.747Z,3.08
2022-09-17T04:21:45.132Z,3.00
2022-09-17T04:24:32.278Z,3.55
2022-09-17T04:27:19.719Z,3.13
2022-09-17T04:30:09.557Z,3.28
2022-09-17T04:32:56.709Z,3.25
2022-09-17T04:35:43.797Z,3.58
2022-09-17T04:38:33.595Z,3.03
2022-09-17T04:41:20.678Z,3.33
2022-09-17T04:44:07.768Z,3.30
2022-09-17T04:46:57.021Z,3.22
2022-09-17T04:49:44.055Z,3.13
2022-09-17T04:52:31.239Z,3.17
2022-09-17T04:55:18.359Z,3.40
2022-09-17T04:58:05.610Z,3.47
2022-09-17T05:00:52.766Z,4.05
2022-09-17T05:03:41.487Z,3.40
2022-09-17T05:06:30.881Z,3.97
2022-09-17T05:09:17.908Z,3.47
2022-09-17T05:12:05.311Z,4.20
2022-09-17T05:15:45.106Z,3.45
2022-09-17T05:18:32.384Z,3.80
2022-09-17T05:21:20.595Z,3.97
2022-09-17T05:24:07.816Z,4.43
2022-09-17T05:26:55.066Z,3.20
2022-09-17T05:29:42.072Z,3.40
2022-09-17T05:32:29.070Z,2.92
2022-09-17T05:35:18.481Z,2.95
2022-09-17T05:38:11.752Z,3.38
2022-09-17T06:47:49.284Z,2.42
2022-09-17T06:50:40.576Z,2.13
2022-09-17T06:53:32.494Z,2.50
2022-09-17T06:56:20.492Z,3.22
2022-09-17T06:59:10.142Z,2.28
2022-09-17T07:01:57.846Z,2.58
2022-09-17T07:04:44.917Z,2.42
2022-09-17T07:07:32.082Z,2.13
2022-09-17T07:10:19.802Z,2.10
2022-09-17T07:13:06.840Z,2.65
2022-09-17T07:15:59.152Z,2.28
2022-09-17T07:18:46.611Z,3.17
2022-09-17T07:21:33.825Z,3.00
2022-09-17T07:24:23.132Z,3.30
2022-09-17T07:27:12.595Z,3.00
2022-09-17T07:29:59.955Z,3.28
2022-09-17T07:32:47.349Z,2.70
2022-09-17T07:35:34.365Z,2.80
2022-09-17T07:38:22.684Z,3.42
2022-09-17T07:41:14.649Z,2.88
2022-09-17T07:44:02.663Z,2.35
2022-09-17T07:46:49.939Z,2.50
2022-09-17T11:07:11.941Z,1.58
2022-09-17T11:09:59.033Z,1.33
2022-09-17T14:08:07.044Z,1.55
2022-09-17T14:10:54.756Z,0.98
2022-09-17T14:13:44.668Z,1.77
2022-09-17T15:53:36.841Z,1.30
2022-09-17T15:56:33.081Z,1.05
2022-09-17T15:59:27.899Z,1.38
2022-09-17T16:02:32.426Z,1.30
2022-09-17T16:05:25.877Z,1.50
2022-09-17T16:08:21.866Z,1.40
2022-09-17T16:11:11.309Z,1.13
2022-09-17T16:14:00.623Z,2.17
2022-09-17T16:16:50.097Z,2.72
2022-09-17T16:19:39.301Z,1.50
2022-09-17T16:22:29.155Z,2.25
2022-09-17T16:25:17.758Z,1.20
2022-09-17T16:28:13.417Z,1.30
2022-09-17T16:34:25.251Z,1.27
2022-09-17T16:37:12.347Z,1.17
2022-09-17T16:40:01.280Z,1.98
2022-09-17T16:42:48.786Z,3.28
2022-09-17T16:45:38.085Z,2.30
2022-09-17T16:48:25.181Z,1.80
2022-09-17T16:51:13.927Z,1.80
2022-09-17T16:54:01.114Z,1.45
2022-09-17T16:56:48.427Z,1.52
2022-09-17T16:59:35.467Z,1.85
2022-09-17T17:02:22.603Z,1.58
2022-09-17T17:05:10.679Z,2.00
2022-09-17T17:07:58.151Z,2.00
2022-09-17T17:10:49.047Z,1.60
2022-09-17T17:13:36.263Z,1.40
2022-09-17T17:16:25.315Z,1.27
2022-09-17T17:19:12.466Z,1.67
2022-09-17T17:21:59.460Z,1.90
2022-09-17T17:24:48.800Z,1.92
2022-09-17T17:27:35.999Z,1.63
2022-09-17T17:30:23.136Z,1.63
2022-09-17T17:33:10.564Z,2.30
2022-09-17T17:36:06.832Z,2.13
2022-09-17T17:39:01.382Z,2.22
2022-09-17T17:41:51.862Z,2.28
2022-09-17T17:44:39.197Z,2.40
2022-09-17T17:47:26.457Z,2.35
2022-09-17T17:50:13.715Z,2.40
2022-09-17T17:53:00.751Z,2.50
2022-09-17T17:55:59.021Z,2.95
2022-09-17T17:58:49.007Z,3.85
2022-09-17T18:01:38.438Z,3.20
2022-09-17T18:04:25.600Z,2.95
2022-09-17T18:07:12.603Z,3.00
2022-09-17T18:09:59.686Z,3.38
2022-09-17T18:12:51.439Z,3.28
2022-09-17T18:15:38.808Z,2.88
2022-09-17T18:18:31.277Z,3.00
2022-09-17T18:21:20.870Z,3.40
2022-09-17T18:24:08.093Z,3.95
2022-09-17T18:26:55.268Z,3.10
2022-09-17T18:29:44.689Z,3.22
2022-09-17T18:32:31.822Z,3.45
2022-09-17T18:35:23.023Z,3.17
2022-09-17T18:38:10.248Z,2.60
2022-09-17T18:41:04.368Z,1.58
2022-09-17T18:43:51.543Z,1.50
2022-09-17T18:46:39.245Z,1.90
2022-09-17T18:49:26.411Z,1.83
2022-09-17T18:52:13.739Z,1.70
2022-09-17T18:55:03.249Z,2.65
2022-09-17T18:57:58.726Z,2.72
2022-09-17T19:00:46.390Z,2.50
2022-09-17T19:03:34.089Z,1.35
2022-09-17T19:06:21.211Z,1.48
2022-09-17T19:09:11.980Z,2.10
2022-09-17T19:11:59.314Z,1.50
2022-09-17T19:14:48.069Z,1.80
2022-09-17T19:17:35.624Z,2.25
2022-09-17T19:20:23.677Z,2.03
2022-09-17T19:23:10.929Z,2.25
2022-09-17T19:26:05.986Z,2.05
2022-09-17T19:28:58.441Z,1.50
2022-09-17T19:31:45.634Z,1.50
2022-09-17T19:34:32.989Z,1.80
2022-09-17T19:37:20.703Z,1.30
2022-09-17T19:40:09.231Z,1.50
2022-09-17T19:42:58.000Z,1.40
2022-09-17T19:45:45.095Z,1.42
2022-09-17T19:48:32.772Z,1.73
2022-09-17T19:51:24.799Z,1.60
2022-09-17T19:54:11.931Z,2.05
2022-09-17T19:56:59.101Z,2.45
2022-09-17T19:59:46.240Z,2.80
2022-09-17T20:02:33.456Z,2.17
2022-09-17T20:05:20.602Z,2.03
2022-09-17T20:08:08.123Z,1.85
2022-09-17T20:11:03.658Z,2.42
2022-09-17T20:13:55.727Z,2.00
2022-09-17T20:16:44.674Z,2.25
2022-09-17T20:19:32.032Z,1.45
2022-09-17T20:22:19.280Z,1.88
2022-09-17T20:25:09.159Z,1.63
2022-09-17T20:27:56.367Z,1.70
2022-09-17T20:30:43.577Z,1.50
2022-09-17T20:33:30.801Z,1.70
2022-09-17T20:36:19.333Z,1.65
2022-09-17T20:39:14.356Z,3.17
2022-09-17T20:42:06.100Z,3.47
2022-09-17T20:44:53.156Z,1.70
2022-09-17T20:47:40.161Z,2.40
2022-09-17T20:50:29.425Z,2.28
2022-09-17T20:53:16.525Z,1.90
2022-09-17T20:56:18.970Z,2.28
2022-09-17T20:59:18.770Z,3.40
2022-09-17T21:02:07.627Z,2.17
2022-09-17T21:04:55.171Z,2.72
2022-09-17T21:07:42.405Z,1.92
2022-09-17T21:10:29.460Z,2.40
2022-09-17T21:13:18.940Z,2.30
2022-09-17T21:16:06.806Z,2.20
2022-09-17T21:18:59.223Z,2.15
2022-09-17T21:21:47.932Z,2.20
2022-09-17T21:24:35.030Z,2.28
2022-09-17T21:27:24.908Z,2.25
2022-09-17T21:30:12.597Z,1.90
2022-09-17T21:33:00.833Z,2.13
2022-09-17T21:35:49.996Z,3.00
2022-09-17T21:38:37.381Z,2.15
2022-09-17T21:41:29.624Z,3.10
2022-09-17T21:44:19.015Z,2.00
2022-09-17T21:47:12.300Z,2.67
2022-09-17T21:49:59.612Z,2.95
2022-09-17T21:52:46.618Z,2.58
2022-09-17T21:55:35.016Z,3.22
2022-09-17T21:58:24.525Z,3.47
2022-09-17T22:01:17.216Z,3.47
2022-09-17T22:06:51.308Z,3.30
2022-09-17T22:09:41.217Z,3.95
2022-09-17T22:12:28.238Z,3.75
2022-09-17T22:15:15.314Z,3.50
2022-09-17T22:18:04.353Z,3.35
2022-09-17T22:20:56.346Z,3.67
2022-09-17T22:23:46.255Z,4.22
2022-09-17T22:26:37.586Z,4.03
2022-09-17T22:29:26.116Z,3.92
2022-09-17T22:32:13.174Z,3.75
2022-09-17T22:35:02.713Z,4.55
2022-09-17T22:37:49.737Z,3.95
2022-09-17T22:40:37.379Z,3.75
2022-09-17T22:43:25.712Z,3.20
2022-09-17T22:46:23.880Z,3.67
2022-09-17T22:49:11.953Z,4.13
2022-09-17T22:51:59.006Z,4.03
2022-09-17T22:54:45.984Z,4.03
2022-09-17T22:57:33.207Z,4.38
2022-09-17T23:00:20.295Z,3.70
2022-09-17T23:03:07.358Z,3.45
2022-09-17T23:05:59.652Z,3.45
2022-09-17T23:08:49.711Z,4.20
2022-09-17T23:11:39.147Z,3.72
2022-09-17T23:14:26.567Z,3.78
2022-09-17T23:17:13.924Z,4.28
2022-09-17T23:20:01.229Z,3.72
2022-09-17T23:22:50.903Z,3.50
2022-09-17T23:25:41.023Z,9.25
2022-09-17T23:28:29.498Z,3.20
2022-09-17T23:31:27.342Z,3.63
2022-09-17T23:34:16.971Z,3.70
2022-09-17T23:37:06.365Z,3.20
2022-09-17T23:39:55.621Z,3.17
2022-09-17T23:42:45.415Z,3.22
2022-09-17T23:45:34.933Z,2.60
2022-09-17T23:48:22.123Z,3.03
2022-09-17T23:51:09.978Z,2.70
2022-09-17T23:53:57.775Z,2.92
2022-09-17T23:56:44.848Z,2.55
2022-09-17T23:59:33.027Z,2.50
